Macin — YP2199 — position and weather

sailwx.info

Track history (hours):
 
Tides and Currents Weather Stations Pressure Air Temp Water Temp Dewpoint Dewpoint Depression Visibility Wind Speed Wind Dir Waves Ship Positions

Macin

Last reported at 2017-Dec-17 17:15 UTC. Time now 2017-Dec-18 07:16 UTC.
Position N 44°18' E 028°03'.

Length 21 m; draft 2 m.

Type: Ship. MMSI: 264162199.

Date/timePositionNaut miles runAvg speedWind from/ knotsBaromVisibWave heightAir tempDewpointWater temp
2017-Dec-17 17:15N 44°18' E 028°03'1 4.3
2017-Dec-17 16:58N 44°17' E 028°04'2 4.4
2017-Dec-17 16:30N 44°16' E 028°07'2 4.8
2017-Dec-17 16:00N 44°16' E 028°10'2 4.8
2017-Dec-17 15:30N 44°15' E 028°13'2 4.7
2017-Dec-17 15:00N 44°15' E 028°16'2 4.8
2017-Dec-17 14:30N 44°15' E 028°20'2 4.5
2017-Dec-17 14:00N 44°14' E 028°22'2 4.6
2017-Dec-17 13:30N 44°12' E 028°24'2 4.1
2017-Dec-17 13:00N 44°10' E 028°25'3 4.3
2017-Dec-17 12:17N 44°07' E 028°27'1 4.5
2017-Dec-17 11:59N 44°06' E 028°28'2 4.8
2017-Dec-17 11:30N 44°06' E 028°31'2 4.7
2017-Dec-17 11:00N 44°06' E 028°35'2 3.7
2017-Dec-17 10:30N 44°06' E 028°37'0 0.6
2017-Dec-17 10:00N 44°06' E 028°38'1 2.1
2017-Dec-17 09:30N 44°07' E 028°39'1 1.6
2017-Dec-17 09:00N 44°08' E 028°39'0 0.0
2017-Dec-17 08:30N 44°08' E 028°39'0 0.0
2017-Dec-17 08:00N 44°08' E 028°39'0 0.0
2017-Dec-17 07:30N 44°08' E 028°39'0 0.9
2017-Dec-17 07:00N 44°08' E 028°39'0 0.0
2017-Dec-17 06:30N 44°08' E 028°39'0 0.0
2017-Dec-17 06:01N 44°08' E 028°39'0 0.0
2017-Dec-17 05:30N 44°08' E 028°39'0 0.0
2017-Dec-17 05:00N 44°08' E 028°39'0 0.0
2017-Dec-17 04:30N 44°08' E 028°39'0 0.0
2017-Dec-17 04:00N 44°08' E 028°39'0 0.0
2017-Dec-17 03:30N 44°08' E 028°39'0 0.0
2017-Dec-17 03:00N 44°08' E 028°39'0 0.0
2017-Dec-17 02:30N 44°08' E 028°39'0 0.0
2017-Dec-17 02:00N 44°08' E 028°39'0 0.0
2017-Dec-17 01:30N 44°08' E 028°39'1 1.2
2017-Dec-17 01:00N 44°07' E 028°39'1 1.4
2017-Dec-17 00:30N 44°07' E 028°39'1 2.7
2017-Dec-17 00:00N 44°06' E 028°37'0 0.3
2017-Dec-16 23:30N 44°06' E 028°37'2 4.3
2017-Dec-16 23:00N 44°06' E 028°34'4 4.9
2017-Dec-16 22:09N 44°06' E 028°28'1 4.6
2017-Dec-16 21:51N 44°07' E 028°27'2 4.5
2017-Dec-16 21:19N 44°09' E 028°26'2 4.7
2017-Dec-16 20:58N 44°10' E 028°24'2 4.2
2017-Dec-16 20:30N 44°12' E 028°23'2 4.6
2017-Dec-16 19:59N 44°14' E 028°22'2 4.4
2017-Dec-16 19:30N 44°15' E 028°19'2 4.7
2017-Dec-16 19:01N 44°15' E 028°15'2 3.8
2017-Dec-16 18:30N 44°16' E 028°13'2 4.6
2017-Dec-16 18:00N 44°16' E 028°10'2 4.6
2017-Dec-16 17:30N 44°16' E 028°07'7 1.3
2017-Dec-16 12:04N 44°22' E 028°02'0 0.6
2017-Dec-16 11:50N 44°22' E 028°02'  
Track history (hours):
 
Tides and Currents Weather Stations Pressure Air Temp Water Temp Dewpoint Dewpoint Depression Visibility Wind Speed Wind Dir Waves Ship Positions

Macin

Last reported at 2017-Dec-17 17:15 UTC. Time now 2017-Dec-18 07:16 UTC.
Position N 44°18' E 028°03'.

Length 21 m; draft 2 m.

Type: Ship. MMSI: 264162199.

Date/timePositionNaut miles runAvg speedWind from/ knotsBaromVisibWave heightAir tempDewpointWater temp
2017-Dec-17 17:15N 44°18' E 028°03'1 4.3
2017-Dec-17 16:58N 44°17' E 028°04'2 4.4
2017-Dec-17 16:30N 44°16' E 028°07'2 4.8
2017-Dec-17 16:00N 44°16' E 028°10'2 4.8
2017-Dec-17 15:30N 44°15' E 028°13'2 4.7
2017-Dec-17 15:00N 44°15' E 028°16'2 4.8
2017-Dec-17 14:30N 44°15' E 028°20'2 4.5
2017-Dec-17 14:00N 44°14' E 028°22'2 4.6
2017-Dec-17 13:30N 44°12' E 028°24'2 4.1
2017-Dec-17 13:00N 44°10' E 028°25'3 4.3
2017-Dec-17 12:17N 44°07' E 028°27'1 4.5
2017-Dec-17 11:59N 44°06' E 028°28'2 4.8
2017-Dec-17 11:30N 44°06' E 028°31'2 4.7
2017-Dec-17 11:00N 44°06' E 028°35'2 3.7
2017-Dec-17 10:30N 44°06' E 028°37'0 0.6
2017-Dec-17 10:00N 44°06' E 028°38'1 2.1
2017-Dec-17 09:30N 44°07' E 028°39'1 1.6
2017-Dec-17 09:00N 44°08' E 028°39'0 0.0
2017-Dec-17 08:30N 44°08' E 028°39'0 0.0
2017-Dec-17 08:00N 44°08' E 028°39'0 0.0
2017-Dec-17 07:30N 44°08' E 028°39'0 0.9
2017-Dec-17 07:00N 44°08' E 028°39'0 0.0
2017-Dec-17 06:30N 44°08' E 028°39'0 0.0
2017-Dec-17 06:01N 44°08' E 028°39'0 0.0
2017-Dec-17 05:30N 44°08' E 028°39'0 0.0
2017-Dec-17 05:00N 44°08' E 028°39'0 0.0
2017-Dec-17 04:30N 44°08' E 028°39'0 0.0
2017-Dec-17 04:00N 44°08' E 028°39'0 0.0
2017-Dec-17 03:30N 44°08' E 028°39'0 0.0
2017-Dec-17 03:00N 44°08' E 028°39'0 0.0
2017-Dec-17 02:30N 44°08' E 028°39'0 0.0
2017-Dec-17 02:00N 44°08' E 028°39'0 0.0
2017-Dec-17 01:30N 44°08' E 028°39'1 1.2
2017-Dec-17 01:00N 44°07' E 028°39'1 1.4
2017-Dec-17 00:30N 44°07' E 028°39'1 2.7
2017-Dec-17 00:00N 44°06' E 028°37'0 0.3
2017-Dec-16 23:30N 44°06' E 028°37'2 4.3
2017-Dec-16 23:00N 44°06' E 028°34'4 4.9
2017-Dec-16 22:09N 44°06' E 028°28'1 4.6
2017-Dec-16 21:51N 44°07' E 028°27'2 4.5
2017-Dec-16 21:19N 44°09' E 028°26'2 4.7
2017-Dec-16 20:58N 44°10' E 028°24'2 4.2
2017-Dec-16 20:30N 44°12' E 028°23'2 4.6
2017-Dec-16 19:59N 44°14' E 028°22'2 4.4
2017-Dec-16 19:30N 44°15' E 028°19'2 4.7
2017-Dec-16 19:01N 44°15' E 028°15'2 3.8
2017-Dec-16 18:30N 44°16' E 028°13'2 4.6
2017-Dec-16 18:00N 44°16' E 028°10'2 4.6
2017-Dec-16 17:30N 44°16' E 028°07'7 1.3
2017-Dec-16 12:04N 44°22' E 028°02'0 0.6
2017-Dec-16 11:50N 44°22' E 028°02'  

Dump ship's entire track history